createdAt,value
2023-01-25T00:01:59.818Z,41.47
2023-01-25T00:06:50.376Z,43.72
2023-01-25T00:11:41.603Z,40.53
2023-01-25T00:16:32.436Z,40.75
2023-01-25T00:21:31.867Z,43.20
2023-01-25T00:26:25.377Z,43.22
2023-01-25T00:31:29.929Z,42.80
2023-01-25T00:36:48.338Z,42.13
2023-01-25T00:41:38.949Z,42.80
2023-01-25T00:46:32.650Z,44.05
2023-01-25T00:51:24.059Z,43.65
2023-01-25T00:56:18.187Z,43.60
2023-01-25T01:01:12.117Z,43.50
2023-01-25T01:06:08.672Z,44.20
2023-01-25T01:11:06.430Z,43.90
2023-01-25T01:16:04.021Z,46.80
2023-01-25T01:20:56.299Z,44.00
2023-01-25T01:25:50.720Z,44.95
2023-01-25T01:30:42.675Z,45.63
2023-01-25T01:35:37.323Z,43.10
2023-01-25T01:40:29.174Z,45.10
2023-01-25T01:45:54.930Z,46.42
2023-01-25T01:50:59.551Z,43.13
2023-01-25T01:55:51.392Z,45.63
2023-01-25T02:00:45.125Z,46.67
2023-01-25T02:05:47.039Z,47.00
2023-01-25T02:10:42.048Z,46.60
2023-01-25T02:15:41.420Z,47.03
2023-01-25T02:20:41.468Z,43.35
2023-01-25T02:25:35.869Z,45.40
2023-01-25T02:30:30.112Z,48.80
2023-01-25T02:35:28.605Z,47.17
2023-01-25T02:40:20.410Z,44.42
2023-01-25T02:45:20.790Z,45.65
2023-01-25T02:50:16.147Z,44.30
2023-01-25T02:55:07.682Z,44.73
2023-01-25T02:59:59.008Z,46.00
2023-01-25T03:04:53.563Z,48.10
2023-01-25T03:09:49.174Z,47.38
2023-01-25T03:14:40.827Z,47.50
2023-01-25T03:19:33.515Z,47.05
2023-01-25T03:24:29.510Z,49.33
2023-01-25T03:29:20.963Z,50.57
2023-01-25T03:34:18.298Z,54.33
2023-01-25T03:39:08.669Z,47.50
2023-01-25T03:44:07.591Z,46.33
2023-01-25T03:48:59.119Z,47.67
2023-01-25T03:53:50.175Z,48.53
2023-01-25T03:58:43.744Z,48.60
2023-01-25T04:03:38.323Z,48.70
2023-01-25T04:08:31.427Z,47.80
2023-01-25T04:13:24.480Z,49.22
2023-01-25T04:18:18.747Z,50.20
2023-01-25T04:23:13.869Z,47.97
2023-01-25T04:28:06.117Z,50.70
2023-01-25T04:32:56.778Z,48.00
2023-01-25T04:37:58.456Z,44.65
2023-01-25T04:42:57.607Z,46.90
2023-01-25T04:47:48.986Z,51.78
2023-01-25T04:52:44.142Z,47.97
2023-01-25T04:57:35.544Z,49.35
2023-01-25T05:02:29.962Z,52.08
2023-01-25T05:07:20.333Z,51.13
2023-01-25T05:12:13.774Z,53.93
2023-01-25T05:17:19.478Z,52.53
2023-01-25T05:22:21.416Z,57.42
2023-01-25T05:27:17.699Z,55.17
2023-01-25T05:32:19.243Z,59.47
2023-01-25T05:37:16.466Z,60.00
2023-01-25T05:42:15.696Z,63.33
2023-01-25T05:47:06.923Z,61.90
2023-01-25T05:51:58.939Z,62.43
2023-01-25T05:57:04.128Z,64.07
2023-01-25T06:01:59.568Z,62.83
2023-01-25T06:06:51.351Z,63.38
2023-01-25T06:11:41.612Z,71.10
2023-01-25T06:16:35.911Z,63.78
2023-01-25T06:21:49.090Z,65.07
2023-01-25T06:26:40.176Z,65.67
2023-01-25T06:31:31.541Z,64.22
2023-01-25T06:36:29.068Z,64.70
2023-01-25T06:41:23.299Z,64.50
2023-01-25T06:46:15.917Z,63.33
2023-01-25T06:51:10.448Z,62.25
2023-01-25T06:56:06.359Z,59.92
2023-01-25T07:00:58.099Z,62.25
2023-01-25T07:05:49.863Z,58.50
2023-01-25T07:10:42.663Z,58.77
2023-01-25T07:15:38.237Z,62.13
2023-01-25T07:20:29.473Z,58.38
2023-01-25T07:25:20.879Z,57.90
2023-01-25T07:30:13.465Z,58.92
2023-01-25T07:35:08.240Z,62.85
2023-01-25T07:39:59.844Z,61.20
2023-01-25T07:44:51.667Z,62.23
2023-01-25T07:49:41.809Z,65.28
2023-01-25T07:54:36.161Z,60.30
2023-01-25T07:59:29.162Z,65.40
2023-01-25T08:04:21.306Z,63.38
2023-01-25T08:09:16.205Z,65.13
2023-01-25T08:14:11.832Z,64.40
2023-01-25T08:19:04.931Z,66.40
2023-01-25T08:23:56.324Z,67.10
2023-01-25T08:28:53.505Z,67.27
2023-01-25T08:33:47.663Z,71.88
2023-01-25T08:38:39.572Z,68.60
2023-01-25T08:43:30.951Z,66.50
2023-01-25T08:48:22.740Z,69.10
2023-01-25T08:53:18.885Z,68.35
2023-01-25T08:58:14.166Z,66.00
2023-01-25T09:03:08.777Z,66.13
2023-01-25T09:08:03.366Z,66.83
2023-01-25T09:12:59.425Z,71.22
2023-01-25T09:17:50.445Z,66.32
2023-01-25T09:22:44.753Z,73.53
2023-01-25T09:27:36.254Z,68.10
2023-01-25T09:32:33.483Z,71.50
2023-01-25T09:37:26.761Z,69.15
2023-01-25T09:42:47.998Z,70.07
2023-01-25T09:47:49.976Z,73.50
2023-01-25T09:53:09.955Z,71.82
2023-01-25T09:58:06.033Z,71.17
2023-01-25T10:03:07.606Z,71.35
2023-01-25T10:08:07.473Z,69.93
2023-01-25T10:13:03.364Z,71.30
2023-01-25T10:18:09.885Z,72.05
2023-01-25T10:23:34.245Z,70.22
2023-01-25T10:28:44.281Z,71.93
2023-01-25T10:33:47.723Z,69.67
2023-01-25T10:38:53.715Z,68.53
2023-01-25T10:44:08.525Z,66.78
2023-01-25T10:49:22.409Z,65.32
2023-01-25T10:54:29.346Z,68.95
2023-01-25T10:59:32.690Z,62.55
2023-01-25T11:04:48.977Z,65.65
2023-01-25T11:09:57.033Z,65.63
2023-01-25T11:14:57.836Z,63.13
2023-01-25T11:19:53.027Z,66.15
2023-01-25T11:24:52.548Z,65.18
2023-01-25T11:29:52.127Z,64.03
2023-01-25T11:35:07.657Z,62.40
2023-01-25T11:40:18.204Z,66.90
2023-01-25T11:45:49.962Z,67.37
2023-01-25T11:50:47.993Z,64.65
2023-01-25T11:55:51.158Z,66.25
2023-01-25T12:01:07.372Z,69.47
2023-01-25T12:06:13.087Z,61.00
2023-01-25T12:11:12.057Z,59.30
2023-01-25T12:16:29.980Z,61.30
2023-01-25T12:21:43.983Z,60.57
2023-01-25T12:26:50.693Z,63.42
2023-01-25T12:32:02.376Z,63.33
2023-01-25T12:36:59.959Z,60.93
2023-01-25T12:41:55.060Z,58.70
2023-01-25T12:46:55.115Z,60.15
2023-01-25T12:51:47.763Z,60.07
2023-01-25T12:56:47.115Z,58.95
2023-01-25T13:01:49.598Z,62.63
2023-01-25T13:07:00.274Z,61.55
2023-01-25T13:11:59.991Z,61.05
2023-01-25T13:17:08.487Z,61.60
2023-01-25T13:22:03.728Z,61.20
2023-01-25T13:27:30.843Z,61.83
2023-01-25T13:33:00.080Z,63.55
2023-01-25T13:38:05.082Z,64.78
2023-01-25T13:43:09.860Z,64.40
2023-01-25T13:48:10.502Z,63.17
2023-01-25T13:53:02.965Z,62.13
2023-01-25T13:57:57.419Z,59.28
2023-01-25T14:02:58.533Z,61.63
2023-01-25T14:07:51.606Z,69.18
2023-01-25T14:12:44.487Z,72.25
2023-01-25T14:17:39.535Z,69.07
2023-01-25T14:22:36.074Z,77.17
2023-01-25T14:27:28.196Z,73.10
2023-01-25T14:32:24.324Z,77.45
2023-01-25T14:37:21.538Z,76.55
2023-01-25T14:42:16.072Z,73.95
2023-01-25T14:47:27.807Z,82.40
2023-01-25T14:52:23.545Z,88.00
2023-01-25T14:57:34.400Z,92.43
2023-01-25T15:02:37.522Z,89.77
2023-01-25T15:07:47.594Z,93.10
2023-01-25T15:12:41.212Z,99.82
2023-01-25T15:17:48.513Z,104.23
2023-01-25T15:22:47.694Z,105.33
2023-01-25T15:27:43.813Z,104.90
2023-01-25T15:32:39.695Z,105.57
2023-01-25T15:37:33.584Z,111.45
2023-01-25T15:42:36.859Z,110.43
2023-01-25T15:47:34.660Z,105.60
2023-01-25T15:52:26.408Z,104.25
2023-01-25T15:57:28.994Z,100.95
2023-01-25T16:02:20.752Z,94.22
2023-01-25T16:07:33.454Z,99.90
2023-01-25T16:12:27.250Z,103.78
2023-01-25T16:17:25.786Z,105.57
2023-01-25T16:22:20.203Z,112.20
2023-01-25T16:27:27.027Z,117.57
2023-01-25T16:32:19.231Z,115.10
2023-01-25T16:37:10.380Z,125.07
2023-01-25T16:42:05.987Z,122.20
2023-01-25T16:46:58.936Z,126.77
2023-01-25T16:51:54.368Z,130.68
2023-01-25T16:56:46.805Z,130.17
2023-01-25T17:01:42.331Z,127.20
2023-01-25T17:06:35.642Z,129.02
2023-01-25T17:11:27.157Z,133.70
2023-01-25T17:16:18.689Z,129.00
2023-01-25T17:21:15.617Z,130.43
2023-01-25T17:26:08.303Z,130.90
2023-01-25T17:31:01.906Z,124.95
2023-01-25T17:35:58.852Z,125.17
2023-01-25T17:40:57.033Z,125.07
2023-01-25T17:45:50.598Z,124.43
2023-01-25T17:50:42.796Z,128.53
2023-01-25T17:55:40.337Z,136.25
2023-01-25T18:00:36.199Z,136.90
2023-01-25T18:05:30.180Z,142.90
2023-01-25T18:10:29.413Z,141.48
2023-01-25T18:15:24.169Z,142.97
2023-01-25T18:20:24.759Z,140.77
2023-01-25T18:25:34.464Z,149.88
2023-01-25T18:30:37.271Z,150.77
2023-01-25T18:35:32.841Z,147.77
2023-01-25T18:40:25.129Z,146.50
2023-01-25T18:45:17.200Z,153.45
2023-01-25T18:50:14.532Z,155.30
2023-01-25T18:55:09.699Z,153.68
2023-01-25T19:00:00.264Z,156.55
2023-01-25T19:04:50.439Z,158.32
2023-01-25T19:09:44.056Z,156.60
2023-01-25T19:14:41.498Z,162.77
2023-01-25T19:19:36.297Z,161.32
2023-01-25T19:24:28.470Z,161.55
2023-01-25T19:29:22.994Z,168.15
2023-01-25T19:34:17.591Z,161.98
2023-01-25T19:39:13.531Z,169.88
2023-01-25T19:44:07.891Z,170.53
2023-01-25T19:49:03.410Z,173.95
2023-01-25T19:54:01.239Z,174.43
2023-01-25T19:58:53.486Z,176.07
2023-01-25T20:03:47.956Z,177.50
2023-01-25T20:08:42.881Z,184.95
2023-01-25T20:13:39.870Z,185.47
2023-01-25T20:18:33.678Z,202.77
2023-01-25T20:23:25.524Z,204.30
2023-01-25T20:28:17.728Z,212.23
2023-01-25T20:33:10.898Z,229.43
2023-01-25T20:38:03.045Z,234.18
2023-01-25T20:42:58.681Z,247.70
2023-01-25T20:47:50.929Z,245.50
2023-01-25T20:52:57.643Z,259.15
2023-01-25T20:57:54.279Z,255.57
2023-01-25T21:02:50.128Z,259.90
2023-01-25T21:07:43.583Z,246.38
2023-01-25T21:12:36.922Z,248.93
2023-01-25T21:17:27.189Z,249.00
2023-01-25T21:22:19.620Z,260.85
2023-01-25T21:27:10.268Z,240.02
2023-01-25T21:32:06.250Z,253.57
2023-01-25T21:36:58.524Z,241.00
2023-01-25T21:41:50.558Z,242.10
2023-01-25T21:47:06.053Z,245.88
2023-01-25T21:52:02.578Z,250.02
2023-01-25T21:56:57.209Z,252.30
2023-01-25T22:01:50.693Z,241.30
2023-01-25T22:06:40.793Z,232.80
2023-01-25T22:11:35.363Z,193.93
2023-01-25T22:16:26.846Z,188.23
2023-01-25T22:21:24.244Z,177.33
2023-01-25T22:26:22.961Z,178.87
2023-01-25T22:31:17.583Z,189.77
2023-01-25T22:36:12.597Z,195.35
2023-01-25T22:41:09.031Z,193.00
2023-01-25T22:46:00.787Z,195.60
2023-01-25T22:50:53.644Z,179.35
2023-01-25T22:55:44.013Z,195.73
2023-01-25T23:00:34.706Z,185.43
2023-01-25T23:05:25.444Z,169.37
2023-01-25T23:10:20.140Z,170.50
2023-01-25T23:15:17.694Z,162.40
2023-01-25T23:20:10.008Z,162.93
2023-01-25T23:25:02.694Z,153.80
2023-01-25T23:29:56.433Z,156.93
2023-01-25T23:34:53.700Z,152.38
2023-01-25T23:39:45.920Z,147.20
2023-01-25T23:44:37.522Z,141.48
2023-01-25T23:49:32.766Z,149.15
2023-01-25T23:54:23.426Z,139.27
2023-01-25T23:59:17.883Z,145.30
